Terminal Aerodrome Forecast
Issued by NWS

Home | Current Version | Previous Version | Text Only | Print | Product List | Glossary On
Versions: 1 2 3 4 5 6 7 8 9 10 11 12 13 14 15 16 17 18 19 20 21 22 23 24 25 26 27 28 29 30 31
000
FTUS41 KCAR 231700
TAFBHB
TAF
KBHB 231723Z 2318/2418 04015G26KT 5SM -RA BR OVC008
      TEMPO 2318/2322 2SM +RA BR OVC005
     FM232200 02011G18KT 3SM -RA BR OVC005
     FM241300 36009G16KT 6SM -RA BKN003
      AMD LTD TO CLD VIS AND WIND=

USA.gov is the U.S. government's official web portal to all federal, state and local government web resources and services.